Wan Hai 501 — S6AS7 — position and weather

sailwx.info

Track history (hours):
 
Tides and Currents Weather Stations Pressure Air Temp Water Temp Dewpoint Dewpoint Depression Visibility Wind Speed Wind Dir Waves Ship Positions

Wan Hai 501

Last reported at 2015-Mar-26 06:33 UTC. Time now 2015-Mar-29 19:36 UTC.
Position N 01°16' E 104°13'.

Length 268 m; draft 9.5 m.

Type: Cargo ship. MMSI: 563382000.

Date/timePositionNaut miles runAvg speedWind from/ knotsBaromVisibWave heightAir tempDewpointWater temp
2015-Mar-26 06:33N 01°16' E 104°13'1717.1
2015-Mar-26 05:33N 01°13' E 103°56'8 8.3
2015-Mar-26 04:33N 01°13' E 103°48'5 3.6
2015-Mar-26 03:14N 01°17' E 103°46'0 0.0
2015-Mar-26 02:26N 01°17' E 103°46'0 0.0
2015-Mar-26 01:32N 01°17' E 103°46'0 0.0
2015-Mar-26 00:29N 01°17' E 103°46'0 0.0
2015-Mar-25 23:29N 01°17' E 103°46'0 0.0
2015-Mar-25 22:29N 01°17' E 103°46'0 0.0
2015-Mar-25 21:29N 01°17' E 103°46'0 0.0
2015-Mar-25 20:32N 01°17' E 103°46'0 0.0
2015-Mar-25 19:32N 01°17' E 103°46'0 0.0
2015-Mar-25 18:17N 01°17' E 103°46'0 0.0
2015-Mar-25 17:32N 01°17' E 103°46'0 0.0
2015-Mar-25 16:29N 01°17' E 103°46'0 0.0
2015-Mar-25 15:29N 01°17' E 103°46'0 0.0
2015-Mar-25 14:29N 01°17' E 103°46'0 0.0
2015-Mar-25 13:32N 01°17' E 103°46'0 0.0
2015-Mar-25 12:29N 01°17' E 103°46'0 0.0
2015-Mar-25 11:29N 01°17' E 103°46'0 0.0
2015-Mar-25 10:32N 01°17' E 103°46'0 0.0
2015-Mar-25 09:29N 01°17' E 103°46'0 0.0
2015-Mar-25 08:23N 01°17' E 103°46'0 0.0
2015-Mar-25 07:29N 01°17' E 103°46'1 1.1
2015-Mar-25 06:33N 01°17' E 103°45'6 6.0
2015-Mar-25 05:30N 01°12' E 103°40'5411.0
2015-Mar-25 00:33N 01°36' E 102°51'1817.6
2015-Mar-24 23:33N 01°44' E 102°36'1817.4
2015-Mar-24 22:32N 01°52' E 102°20'1717.0
2015-Mar-24 21:33N 02°01' E 102°06'  
Track history (hours):
 
Tides and Currents Weather Stations Pressure Air Temp Water Temp Dewpoint Dewpoint Depression Visibility Wind Speed Wind Dir Waves Ship Positions

Wan Hai 501

Last reported at 2015-Mar-26 06:33 UTC. Time now 2015-Mar-29 19:36 UTC.
Position N 01°16' E 104°13'.

Length 268 m; draft 9.5 m.

Type: Cargo ship. MMSI: 563382000.

Date/timePositionNaut miles runAvg speedWind from/ knotsBaromVisibWave heightAir tempDewpointWater temp
2015-Mar-26 06:33N 01°16' E 104°13'1717.1
2015-Mar-26 05:33N 01°13' E 103°56'8 8.3
2015-Mar-26 04:33N 01°13' E 103°48'5 3.6
2015-Mar-26 03:14N 01°17' E 103°46'0 0.0
2015-Mar-26 02:26N 01°17' E 103°46'0 0.0
2015-Mar-26 01:32N 01°17' E 103°46'0 0.0
2015-Mar-26 00:29N 01°17' E 103°46'0 0.0
2015-Mar-25 23:29N 01°17' E 103°46'0 0.0
2015-Mar-25 22:29N 01°17' E 103°46'0 0.0
2015-Mar-25 21:29N 01°17' E 103°46'0 0.0
2015-Mar-25 20:32N 01°17' E 103°46'0 0.0
2015-Mar-25 19:32N 01°17' E 103°46'0 0.0
2015-Mar-25 18:17N 01°17' E 103°46'0 0.0
2015-Mar-25 17:32N 01°17' E 103°46'0 0.0
2015-Mar-25 16:29N 01°17' E 103°46'0 0.0
2015-Mar-25 15:29N 01°17' E 103°46'0 0.0
2015-Mar-25 14:29N 01°17' E 103°46'0 0.0
2015-Mar-25 13:32N 01°17' E 103°46'0 0.0
2015-Mar-25 12:29N 01°17' E 103°46'0 0.0
2015-Mar-25 11:29N 01°17' E 103°46'0 0.0
2015-Mar-25 10:32N 01°17' E 103°46'0 0.0
2015-Mar-25 09:29N 01°17' E 103°46'0 0.0
2015-Mar-25 08:23N 01°17' E 103°46'0 0.0
2015-Mar-25 07:29N 01°17' E 103°46'1 1.1
2015-Mar-25 06:33N 01°17' E 103°45'6 6.0
2015-Mar-25 05:30N 01°12' E 103°40'5411.0
2015-Mar-25 00:33N 01°36' E 102°51'1817.6
2015-Mar-24 23:33N 01°44' E 102°36'1817.4
2015-Mar-24 22:32N 01°52' E 102°20'1717.0
2015-Mar-24 21:33N 02°01' E 102°06'  

Dump ship's entire track history